Terminal Aerodrome Forecast
Issued by NWS

Home | Current Version | Previous Version | Text Only | Print | Product List | Glossary On
Versions: 1 2 3 4 5 6 7 8 9 10 11 12 13 14 15 16 17
000
FTUS44 KSJT 191100
TAFJCT
TAF
KJCT 191128Z 1912/2012 08006KT P6SM SCT015
      TEMPO 1912/1915 BKN015
     FM191500 12008KT P6SM SCT025 BKN100
     FM191800 16010KT P6SM VCSH SCT050 BKN100
     FM200300 11007KT P6SM BKN080
     FM200900 12004KT 6SM BR BKN015=

USA.gov is the U.S. government's official web portal to all federal, state and local government web resources and services.